Nathaniel B. Palmer — WBP3210 — position and weather

sailwx.info

Track history (hours):
 
Tides and Currents Weather Stations Pressure Air Temp Water Temp Dewpoint Dewpoint Depression Visibility Wind Speed Wind Dir Waves Ship Positions

Oceanographic research ship Nathaniel B. Palmer (USA)

Contact: Ethan Norris, ethan.norris.contractor@usap.gov

Detailed information on ship capabilities available from University of Delaware's Ocean Information Center and ARCUS's ALIAS (Arctic Logistics Information and Support) project.

Owner: OFFSHORE SERVICE VESSELS, Cut Off, LA. More information available from US FCC via Universal Licensing System and Coast Guard Vessel Documentation Center.

Last reported at 2020-Mar-22 12:00 UTC. Time now 2020-Mar-29 15:16 UTC.
Position S 67°54' W 070°00'.

Type: Other ship. MMSI: 366610000.

Wind from 050 at 23 knots

Date/timePositionNaut miles runAvg speedWind from/ knotsBaromVisibWave heightAir tempDewpointWater temp
2020-Mar-22 12:00S 67°54' W 070°00'1111.3 050 / 23
2020-Mar-22 11:00S 67°54' W 070°30'1110.8 040
2020-Mar-22 10:00S 68°00' W 070°54'7 6.7 040 / 32969.5 0.1 0.6
2020-Mar-22 09:00S 68°00' W 071°12'   040 / 30969.5 -0.1 0.6
2020-Mar-19 00:00S 70°18' W 103°06'6 6.3 200 / 19978.9 -5.6 -0.6
2020-Mar-18 23:00S 70°24' W 103°12'1212.0 210 / 19978.4 -5.1 -0.6
2020-Mar-18 22:00S 70°36' W 103°12'6 6.3 220 / 18978.0 -5.3 -0.8
2020-Mar-18 21:00S 70°42' W 103°18'1212.2 220 / 16
2020-Mar-18 20:00S 70°54' W 103°12'6 6.3 220 / 15977.0 -7.0 -1.5
2020-Mar-18 19:00S 71°00' W 103°18'7 7.2 210 / 15976.8 -7.3 -1.7
2020-Mar-18 18:00S 71°06' W 103°06'6 6.3 200 / 13976.3 -7.6 -1.6
2020-Mar-18 17:00S 71°12' W 103°00'7 7.1 210 / 12975.7 -7.7 -1.7
2020-Mar-18 16:00S 71°18' W 102°48'6 6.0 210 / 10975.1 -7.6 -1.7
2020-Mar-18 15:00S 71°24' W 102°48'6 6.3 180 / 11974.8 -7.3 -1.7
2020-Mar-18 14:00S 71°30' W 102°54'6 6.0 170 / 9974.5 -7.4 -1.7
2020-Mar-18 13:00S 71°36' W 102°54'0 0.0 160 / 10973.9 -7.0 -1.7
2020-Mar-18 12:00S 71°36' W 102°54'0 0.0 170 / 10973.3 -7.0 -1.6
2020-Mar-18 11:00S 71°36' W 102°54'2 1.9 170 / 6972.9 -6.7 -1.7
2020-Mar-18 10:00S 71°36' W 102°48'0 0.0 150 / 9972.3 -7.2 -1.7
2020-Mar-18 09:00S 71°36' W 102°48'6 6.0 130 / 10971.7 -7.3 -1.7
2020-Mar-18 08:00S 71°42' W 102°48'2 1.9 100 / 10971.4 -8.1 -1.7
2020-Mar-18 07:00S 71°42' W 102°54'2 1.9 090 / 14971.2 -8.2 -1.7
2020-Mar-18 06:00S 71°42' W 103°00'0 0.0 090 / 12970.9 -8.3 -1.7
2020-Mar-18 05:00S 71°42' W 103°00'2 1.9 100 / 14970.9 -8.5 -1.7
2020-Mar-18 04:00S 71°42' W 103°06'6 6.0 090 / 12971.1 -8.3 -1.7
2020-Mar-18 03:00S 71°48' W 103°06'6 6.3 090 / 11971.5 -8.0 -1.6
2020-Mar-18 02:00S 71°54' W 103°12'7 7.1 070 / 9971.9 -7.9 -1.7
2020-Mar-18 01:00S 72°00' W 103°24'7 7.0 050 / 7972.3 -7.6 -1.7
2020-Mar-18 00:00S 72°06' W 103°36'1212.1 010 / 6972.7 -7.6 -1.7
2020-Mar-17 23:00S 72°18' W 103°30'7 7.0 350 / 3973.2 -8.2 -1.7
2020-Mar-17 22:00S 72°24' W 103°42'5 5.4 320 / 5973.4 -8.5 -1.7
2020-Mar-17 21:00S 72°24' W 104°00'0 0.0 300 / 4973.8 -7.7 -1.6
2020-Mar-17 20:00S 72°24' W 104°00'2 1.8 300 / 8974.0 -7.7 -1.5
2020-Mar-17 19:00S 72°24' W 104°06'0 0.0 330 / 6974.3 -8.0 -1.5
2020-Mar-17 18:00S 72°24' W 104°06'0 0.0 350 / 5974.7 -8.3 -1.5
2020-Mar-17 17:00S 72°24' W 104°06'0 0.0 340 / 6975.0 -8.6 -1.5
2020-Mar-17 16:00S 72°24' W 104°06'0 0.0 340 / 5975.5 -9.0 -1.5
2020-Mar-17 15:00S 72°24' W 104°06'0 0.0 310 / 6975.9 -8.5 -1.6
2020-Mar-17 14:00S 72°24' W 104°06'0 0.0 290 / 7976.2 -8.4 -1.5
2020-Mar-17 13:00S 72°24' W 104°06'0 0.0 290 / 10976.4 -8.2 -1.5
2020-Mar-17 12:00S 72°24' W 104°06'0 0.0 270 / 12976.6 -8.3 -1.6
2020-Mar-17 11:00S 72°24' W 104°06'0 0.0 260 / 15976.5 -8.5 -1.6
2020-Mar-17 10:00S 72°24' W 104°06'0 0.0 270 / 16976.4 -7.6 -1.6
2020-Mar-17 09:00S 72°24' W 104°06'0 0.0 260 / 14976.2 -7.0 -1.5
2020-Mar-17 08:00S 72°24' W 104°06'0 0.0 270 / 12976.1 -5.7 -1.6
2020-Mar-17 07:00S 72°24' W 104°06'0 0.0 280 / 10976.2 -5.3 -1.6
2020-Mar-17 06:00S 72°24' W 104°06'0 0.0 280 / 10976.2 -5.1 -1.6
2020-Mar-17 05:00S 72°24' W 104°06'0 0.0 310 / 4976.3 -6.8 -1.6
2020-Mar-17 04:00S 72°24' W 104°06'0 0.0 330 / 3976.4 -7.6 -1.6
2020-Mar-17 03:00S 72°24' W 104°06'0 0.0 300 / 3976.6 -7.7 -1.6
2020-Mar-17 02:00S 72°24' W 104°06'2 1.8 280 / 6976.8 -7.4 -1.7
2020-Mar-17 01:00S 72°24' W 104°12'0 0.0 270 / 7976.7 -8.2 -1.7
2020-Mar-17 00:00S 72°24' W 104°12'2 1.8 260 / 8976.7 -9.0 -1.8
2020-Mar-16 23:00S 72°24' W 104°06'0 0.0 250 / 10976.7 -9.7 -1.8
2020-Mar-16 22:00S 72°24' W 104°06'0 0.0 240 / 10976.6 -9.0 -1.7
2020-Mar-16 21:00S 72°24' W 104°06'2 1.8 240 / 11976.4 -9.7 -1.7
2020-Mar-16 20:00S 72°24' W 104°12'6 6.3 240 / 10976.3 -10.1 -1.7
2020-Mar-16 19:00S 72°30' W 104°18'4 3.6 230 / 11976.1 -10.4 -1.7
2020-Mar-16 18:00S 72°30' W 104°30'4 3.6 240 / 12975.9 -12.5 -1.7
2020-Mar-16 17:00S 72°30' W 104°42'5 5.4 230 / 13976.0 -12.7 -1.7
2020-Mar-16 16:00S 72°30' W 105°00'0 0.0 230 / 12976.2 -13.5 -1.7
2020-Mar-16 15:00S 72°30' W 105°00'4 3.6 230 / 14976.2 -13.3 -1.7
2020-Mar-16 14:00S 72°30' W 104°48'7 7.0 240 / 16975.8 -13.0 -1.7
2020-Mar-16 13:00S 72°24' W 104°36'0 0.0 230 / 14975.7 -11.6 -1.7
2020-Mar-16 12:00S 72°24' W 104°36'0 0.0 240 / 14975.5 -10.7 -1.7
2020-Mar-16 11:00S 72°24' W 104°36'6 6.0 230 / 16975.4 -8.8 -1.7
2020-Mar-16 10:00S 72°30' W 104°36'2 1.8 220 / 17975.2 -8.9 -1.7
2020-Mar-16 09:00S 72°30' W 104°30'2 1.8 220 / 14975.1 -8.7 -1.7
2020-Mar-16 08:00S 72°30' W 104°24'6 6.3 210 / 13975.0 -8.4 -1.7
2020-Mar-16 07:00S 72°36' W 104°18'0 0.0 200 / 10974.9 -8.9 -1.7
2020-Mar-16 06:00S 72°36' W 104°18'0 0.0 200 / 9974.8 -8.1 -1.7
2020-Mar-16 05:00S 72°36' W 104°18'0 0.0 180 / 10974.7 -8.2 -1.7
2020-Mar-16 04:00S 72°36' W 104°18'2 1.8 200 / 9974.8 -8.1 -1.7
2020-Mar-16 03:00S 72°36' W 104°12'4 3.6 210 / 11974.8 -7.3 -1.7
2020-Mar-16 02:00S 72°36' W 104°00'0 0.0 200 / 10974.8 -5.6 -1.7
2020-Mar-16 01:00S 72°36' W 104°00'6 6.3 180 / 10974.7 -4.4 -1.7
2020-Mar-16 00:00S 72°42' W 104°06'0 0.0 180 / 11974.8 -4.3 -1.8
2020-Mar-15 23:00S 72°42' W 104°06'7 7.0 190 / 11974.6 -3.4 -1.8
2020-Mar-15 22:00S 72°48' W 103°54'6 6.3 190 / 11974.4 -2.0 -1.6
2020-Mar-15 21:00S 72°54' W 103°48'1212.0 160 / 11974.5 -2.3 -1.6
2020-Mar-15 20:00S 73°06' W 103°48'1212.1 160 / 11974.5 -2.4 -1.6
2020-Mar-15 19:00S 73°18' W 103°54'1010.5 160 / 11974.4 -3.0 -1.7
2020-Mar-15 18:00S 73°24' W 104°24'7 6.9 150 / 12974.5 -3.8 -1.8
2020-Mar-15 17:00S 73°24' W 104°48'6 6.0 170 / 11974.2 -4.8 -1.8
2020-Mar-15 16:00S 73°18' W 104°48'7 6.9 160 / 11974.0 -4.1 -1.7
2020-Mar-15 15:00S 73°12' W 105°00'5 5.2 170 / 13973.5 -4.7 -1.8
2020-Mar-15 14:00S 73°12' W 105°18'0 0.0 150 / 13973.0 -5.2 -1.8
2020-Mar-15 13:00S 73°12' W 105°18'0 0.0 130 / 14972.5 -3.1 -1.7
2020-Mar-15 12:00S 73°12' W 105°18'0 0.0 130 / 15972.0 -2.3 -1.7
2020-Mar-15 11:00S 73°12' W 105°18'0 0.0 120 / 20971.2 -2.1 -1.0
2020-Mar-15 10:00S 73°12' W 105°18'0 0.0 140 / 18970.3 -2.4 -1.3
2020-Mar-15 09:00S 73°12' W 105°18'0 0.0 140 / 15969.6 -2.2 -1.6
2020-Mar-15 08:00S 73°12' W 105°18'0 0.0 140 / 20968.6 -2.7 -1.7
2020-Mar-15 07:00S 73°12' W 105°18'0 0.0 140 / 18968.2 -3.2 -1.7
2020-Mar-15 06:00S 73°12' W 105°18'2 1.7 160 / 14967.7 -5.8 -1.7
2020-Mar-15 05:00S 73°12' W 105°24'0 0.0 150 / 14967.1 -3.7 -1.7
2020-Mar-15 04:00S 73°12' W 105°24'0 0.0 130 / 16966.8 -2.3 -1.7
2020-Mar-15 03:00S 73°12' W 105°24'2 1.7 130 / 17967.0 -2.2 -1.8
2020-Mar-15 02:00S 73°12' W 105°18'0 0.0 150 / 20967.2 -2.1 -1.7
2020-Mar-15 01:00S 73°12' W 105°18'6 6.2 160 / 19967.0 -1.8 -1.7
2020-Mar-15 00:00S 73°18' W 105°12'3 3.4 160 / 20966.9 -1.5 -1.7
2020-Mar-14 23:00S 73°18' W 105°00'7 6.9 160 / 19966.4 -1.3 -1.8
2020-Mar-14 22:00S 73°24' W 104°48'9 8.6 150 / 20966.4 -0.8 -1.7
2020-Mar-14 21:00S 73°24' W 104°18'1010.5 150 / 22966.1 -0.9 -1.7
2020-Mar-14 20:00S 73°18' W 103°48'1212.1 130 / 18965.8 -0.0 -1.6
2020-Mar-14 19:00S 73°06' W 103°42'6 6.0 120 / 18965.1 0.2 -1.6
2020-Mar-14 18:00S 73°00' W 103°42'1212.0 080 / 27963.3 -0.1 -1.6
2020-Mar-14 17:00S 72°48' W 103°42'6 6.3 080 / 28962.3 -0.0 -1.7
2020-Mar-14 16:00S 72°42' W 103°48'7 7.0 080 / 36961.8 -0.3 -1.7
2020-Mar-14 15:00S 72°36' W 104°00'4 3.6 090 / 30962.0 -0.5 -1.7
2020-Mar-14 14:00S 72°36' W 104°12'2 1.8 100 / 22962.9 -0.3 -1.7
2020-Mar-14 13:00S 72°36' W 104°18'6 6.0 110 / 17963.6 -0.0 -1.7
2020-Mar-14 12:00S 72°42' W 104°18'0 0.0 120 / 17964.1 0.5 -1.4
2020-Mar-14 11:00S 72°42' W 104°18'0 0.0 130 / 15964.5 -0.4 -1.5
2020-Mar-14 10:00S 72°42' W 104°18'0 0.0 150 / 13964.9 -1.1 -1.5
2020-Mar-14 09:00S 72°42' W 104°18'0 0.0 150 / 17965.6 -1.1 -1.6
2020-Mar-14 08:00S 72°42' W 104°18'0 0.0 160 / 18966.3 -1.0 -1.7
2020-Mar-14 07:00S 72°42' W 104°18'0 0.0 160 / 14967.2 -1.1 -1.8
2020-Mar-14 06:00S 72°42' W 104°18'2 1.8 160 / 12968.0 -1.4 -1.7
2020-Mar-14 05:00S 72°42' W 104°12'2 1.8 140 / 11968.4 -0.9 -1.7
2020-Mar-14 04:00S 72°42' W 104°18'0 0.0 090 / 16968.9 -0.6 -1.7
2020-Mar-14 03:00S 72°42' W 104°18'4 3.6 100 / 12969.7 -1.2 -1.7
2020-Mar-14 02:00S 72°42' W 104°30'7 7.0 110 / 10970.4 -1.8 -1.7
2020-Mar-14 01:00S 72°48' W 104°42'0 0.0 140 / 10970.8 -1.8 -1.7
2020-Mar-14 00:00S 72°48' W 104°42'6 6.3 140 / 10971.0 -2.2 -1.7
2020-Mar-13 23:00S 72°42' W 104°36'4 3.6 120 / 10971.2 -1.7 -1.7
2020-Mar-13 22:00S 72°42' W 104°24'7 7.0 090 / 15971.1 -1.2 -1.7
2020-Mar-13 21:00S 72°36' W 104°12'2 1.8 080 / 19970.9 -1.5 -1.8
2020-Mar-13 20:00S 72°36' W 104°18'0 0.0 080 / 18971.0 -2.4 -1.7
2020-Mar-13 19:00S 72°36' W 104°18'2 1.8 080 / 17971.0 -2.7 -1.7
2020-Mar-13 18:00S 72°36' W 104°24'0 0.0 080 / 16970.8 -2.6 -1.7
2020-Mar-13 17:00S 72°36' W 104°24'0 0.0 080 / 19970.7 -2.7 -1.7
2020-Mar-13 16:00S 72°36' W 104°24'0 0.0 070 / 15970.7 -3.2 -1.7
2020-Mar-13 15:00S 72°36' W 104°24'2 1.8 080 / 16970.5 -3.4 -1.8
2020-Mar-13 14:00S 72°36' W 104°18'2 1.8 080 / 19970.5 -3.3 -1.7
2020-Mar-13 13:00S 72°36' W 104°12'4 3.6 080 / 21970.3 -3.2 -1.7
2020-Mar-13 12:00S 72°36' W 104°00'6 6.3 080 / 20969.9 -3.1 -1.8
2020-Mar-13 11:00S 72°42' W 103°54'4 3.6 080 / 19969.4 -2.2 -1.7
2020-Mar-13 10:00S 72°42' W 103°42'6 6.3 070 / 20969.0 -1.7 -1.7
2020-Mar-13 09:00S 72°48' W 103°36'1212.0 070 / 21968.7 -1.9 -1.6
2020-Mar-13 08:00S 73°00' W 103°36'1212.5 070 / 25968.6 -2.5 -1.7
2020-Mar-13 07:00S 73°12' W 103°24'6 6.0 060 / 20968.7 -1.9 -1.6
2020-Mar-13 06:00S 73°18' W 103°24'2 1.7 060 / 18968.7 -1.9 -1.6
2020-Mar-13 05:00S 73°18' W 103°30'2 1.7 060 / 21968.3 -2.0 -1.7
2020-Mar-13 04:00S 73°18' W 103°24'1212.1 060 / 16968.0 -2.3 -1.5
2020-Mar-13 03:00S 73°30' W 103°18'6 6.0 040 / 15967.9 -2.1 -1.6
2020-Mar-13 02:00S 73°36' W 103°18'6 6.0 030 / 13967.6 -1.9 -1.6
2020-Mar-13 01:00S 73°42' W 103°18'0 0.0 966.6 -2.1 -1.7
2020-Mar-13 00:00S 73°42' W 103°18'7 6.9 360 / 15965.5 -2.1 -1.7
2020-Mar-12 23:00S 73°48' W 103°06'1010.3 020 / 19964.1 -1.1 -1.4
2020-Mar-12 22:00S 73°54' W 102°36'9 8.9 020 / 20963.1 -1.1 -1.3
2020-Mar-12 21:00S 74°00' W 102°12'0 0.0 010 / 9963.3 -0.9 -1.3
2020-Mar-12 20:00S 74°00' W 102°12'0 0.0 010 / 20962.2 -1.3 -1.3
2020-Mar-12 19:00S 74°00' W 102°12'0 0.0 030 / 15961.4 -1.2 -1.3
2020-Mar-12 18:00S 74°00' W 102°12'0 0.0 020 / 6960.8 -2.2 -1.3
2020-Mar-12 17:00S 74°00' W 102°12'0 0.0 350 / 3961.1 -2.7 -1.4
2020-Mar-12 16:00S 74°00' W 102°12'0 0.0 180 / 4962.6 -3.5 -1.4
2020-Mar-12 15:00S 74°00' W 102°12'0 0.0 130 / 10964.8 -3.4 -1.4
2020-Mar-12 14:00S 74°00' W 102°12'0 0.0 130 / 16966.9 -2.9 -1.4
2020-Mar-12 13:00S 74°00' W 102°12'0 0.0 150 / 14968.9 -2.4 -1.4
2020-Mar-12 12:00S 74°00' W 102°12'   120 / 13971.1 -1.4 -1.5
Track history (hours):
 
Tides and Currents Weather Stations Pressure Air Temp Water Temp Dewpoint Dewpoint Depression Visibility Wind Speed Wind Dir Waves Ship Positions

Oceanographic research ship Nathaniel B. Palmer (USA)

Contact: Ethan Norris, ethan.norris.contractor@usap.gov

Detailed information on ship capabilities available from University of Delaware's Ocean Information Center and ARCUS's ALIAS (Arctic Logistics Information and Support) project.

Owner: OFFSHORE SERVICE VESSELS, Cut Off, LA. More information available from US FCC via Universal Licensing System and Coast Guard Vessel Documentation Center.

Last reported at 2020-Mar-22 12:00 UTC. Time now 2020-Mar-29 15:16 UTC.
Position S 67°54' W 070°00'.

Type: Other ship. MMSI: 366610000.

Wind from 050 at 23 knots

Date/timePositionNaut miles runAvg speedWind from/ knotsBaromVisibWave heightAir tempDewpointWater temp
2020-Mar-22 12:00S 67°54' W 070°00'1111.3 050 / 23
2020-Mar-22 11:00S 67°54' W 070°30'1110.8 040
2020-Mar-22 10:00S 68°00' W 070°54'7 6.7 040 / 32969.5 0.1 0.6
2020-Mar-22 09:00S 68°00' W 071°12'   040 / 30969.5 -0.1 0.6
2020-Mar-19 00:00S 70°18' W 103°06'6 6.3 200 / 19978.9 -5.6 -0.6
2020-Mar-18 23:00S 70°24' W 103°12'1212.0 210 / 19978.4 -5.1 -0.6
2020-Mar-18 22:00S 70°36' W 103°12'6 6.3 220 / 18978.0 -5.3 -0.8
2020-Mar-18 21:00S 70°42' W 103°18'1212.2 220 / 16
2020-Mar-18 20:00S 70°54' W 103°12'6 6.3 220 / 15977.0 -7.0 -1.5
2020-Mar-18 19:00S 71°00' W 103°18'7 7.2 210 / 15976.8 -7.3 -1.7
2020-Mar-18 18:00S 71°06' W 103°06'6 6.3 200 / 13976.3 -7.6 -1.6
2020-Mar-18 17:00S 71°12' W 103°00'7 7.1 210 / 12975.7 -7.7 -1.7
2020-Mar-18 16:00S 71°18' W 102°48'6 6.0 210 / 10975.1 -7.6 -1.7
2020-Mar-18 15:00S 71°24' W 102°48'6 6.3 180 / 11974.8 -7.3 -1.7
2020-Mar-18 14:00S 71°30' W 102°54'6 6.0 170 / 9974.5 -7.4 -1.7
2020-Mar-18 13:00S 71°36' W 102°54'0 0.0 160 / 10973.9 -7.0 -1.7
2020-Mar-18 12:00S 71°36' W 102°54'0 0.0 170 / 10973.3 -7.0 -1.6
2020-Mar-18 11:00S 71°36' W 102°54'2 1.9 170 / 6972.9 -6.7 -1.7
2020-Mar-18 10:00S 71°36' W 102°48'0 0.0 150 / 9972.3 -7.2 -1.7
2020-Mar-18 09:00S 71°36' W 102°48'6 6.0 130 / 10971.7 -7.3 -1.7
2020-Mar-18 08:00S 71°42' W 102°48'2 1.9 100 / 10971.4 -8.1 -1.7
2020-Mar-18 07:00S 71°42' W 102°54'2 1.9 090 / 14971.2 -8.2 -1.7
2020-Mar-18 06:00S 71°42' W 103°00'0 0.0 090 / 12970.9 -8.3 -1.7
2020-Mar-18 05:00S 71°42' W 103°00'2 1.9 100 / 14970.9 -8.5 -1.7
2020-Mar-18 04:00S 71°42' W 103°06'6 6.0 090 / 12971.1 -8.3 -1.7
2020-Mar-18 03:00S 71°48' W 103°06'6 6.3 090 / 11971.5 -8.0 -1.6
2020-Mar-18 02:00S 71°54' W 103°12'7 7.1 070 / 9971.9 -7.9 -1.7
2020-Mar-18 01:00S 72°00' W 103°24'7 7.0 050 / 7972.3 -7.6 -1.7
2020-Mar-18 00:00S 72°06' W 103°36'1212.1 010 / 6972.7 -7.6 -1.7
2020-Mar-17 23:00S 72°18' W 103°30'7 7.0 350 / 3973.2 -8.2 -1.7
2020-Mar-17 22:00S 72°24' W 103°42'5 5.4 320 / 5973.4 -8.5 -1.7
2020-Mar-17 21:00S 72°24' W 104°00'0 0.0 300 / 4973.8 -7.7 -1.6
2020-Mar-17 20:00S 72°24' W 104°00'2 1.8 300 / 8974.0 -7.7 -1.5
2020-Mar-17 19:00S 72°24' W 104°06'0 0.0 330 / 6974.3 -8.0 -1.5
2020-Mar-17 18:00S 72°24' W 104°06'0 0.0 350 / 5974.7 -8.3 -1.5
2020-Mar-17 17:00S 72°24' W 104°06'0 0.0 340 / 6975.0 -8.6 -1.5
2020-Mar-17 16:00S 72°24' W 104°06'0 0.0 340 / 5975.5 -9.0 -1.5
2020-Mar-17 15:00S 72°24' W 104°06'0 0.0 310 / 6975.9 -8.5 -1.6
2020-Mar-17 14:00S 72°24' W 104°06'0 0.0 290 / 7976.2 -8.4 -1.5
2020-Mar-17 13:00S 72°24' W 104°06'0 0.0 290 / 10976.4 -8.2 -1.5
2020-Mar-17 12:00S 72°24' W 104°06'0 0.0 270 / 12976.6 -8.3 -1.6
2020-Mar-17 11:00S 72°24' W 104°06'0 0.0 260 / 15976.5 -8.5 -1.6
2020-Mar-17 10:00S 72°24' W 104°06'0 0.0 270 / 16976.4 -7.6 -1.6
2020-Mar-17 09:00S 72°24' W 104°06'0 0.0 260 / 14976.2 -7.0 -1.5
2020-Mar-17 08:00S 72°24' W 104°06'0 0.0 270 / 12976.1 -5.7 -1.6
2020-Mar-17 07:00S 72°24' W 104°06'0 0.0 280 / 10976.2 -5.3 -1.6
2020-Mar-17 06:00S 72°24' W 104°06'0 0.0 280 / 10976.2 -5.1 -1.6
2020-Mar-17 05:00S 72°24' W 104°06'0 0.0 310 / 4976.3 -6.8 -1.6
2020-Mar-17 04:00S 72°24' W 104°06'0 0.0 330 / 3976.4 -7.6 -1.6
2020-Mar-17 03:00S 72°24' W 104°06'0 0.0 300 / 3976.6 -7.7 -1.6
2020-Mar-17 02:00S 72°24' W 104°06'2 1.8 280 / 6976.8 -7.4 -1.7
2020-Mar-17 01:00S 72°24' W 104°12'0 0.0 270 / 7976.7 -8.2 -1.7
2020-Mar-17 00:00S 72°24' W 104°12'2 1.8 260 / 8976.7 -9.0 -1.8
2020-Mar-16 23:00S 72°24' W 104°06'0 0.0 250 / 10976.7 -9.7 -1.8
2020-Mar-16 22:00S 72°24' W 104°06'0 0.0 240 / 10976.6 -9.0 -1.7
2020-Mar-16 21:00S 72°24' W 104°06'2 1.8 240 / 11976.4 -9.7 -1.7
2020-Mar-16 20:00S 72°24' W 104°12'6 6.3 240 / 10976.3 -10.1 -1.7
2020-Mar-16 19:00S 72°30' W 104°18'4 3.6 230 / 11976.1 -10.4 -1.7
2020-Mar-16 18:00S 72°30' W 104°30'4 3.6 240 / 12975.9 -12.5 -1.7
2020-Mar-16 17:00S 72°30' W 104°42'5 5.4 230 / 13976.0 -12.7 -1.7
2020-Mar-16 16:00S 72°30' W 105°00'0 0.0 230 / 12976.2 -13.5 -1.7
2020-Mar-16 15:00S 72°30' W 105°00'4 3.6 230 / 14976.2 -13.3 -1.7
2020-Mar-16 14:00S 72°30' W 104°48'7 7.0 240 / 16975.8 -13.0 -1.7
2020-Mar-16 13:00S 72°24' W 104°36'0 0.0 230 / 14975.7 -11.6 -1.7
2020-Mar-16 12:00S 72°24' W 104°36'0 0.0 240 / 14975.5 -10.7 -1.7
2020-Mar-16 11:00S 72°24' W 104°36'6 6.0 230 / 16975.4 -8.8 -1.7
2020-Mar-16 10:00S 72°30' W 104°36'2 1.8 220 / 17975.2 -8.9 -1.7
2020-Mar-16 09:00S 72°30' W 104°30'2 1.8 220 / 14975.1 -8.7 -1.7
2020-Mar-16 08:00S 72°30' W 104°24'6 6.3 210 / 13975.0 -8.4 -1.7
2020-Mar-16 07:00S 72°36' W 104°18'0 0.0 200 / 10974.9 -8.9 -1.7
2020-Mar-16 06:00S 72°36' W 104°18'0 0.0 200 / 9974.8 -8.1 -1.7
2020-Mar-16 05:00S 72°36' W 104°18'0 0.0 180 / 10974.7 -8.2 -1.7
2020-Mar-16 04:00S 72°36' W 104°18'2 1.8 200 / 9974.8 -8.1 -1.7
2020-Mar-16 03:00S 72°36' W 104°12'4 3.6 210 / 11974.8 -7.3 -1.7
2020-Mar-16 02:00S 72°36' W 104°00'0 0.0 200 / 10974.8 -5.6 -1.7
2020-Mar-16 01:00S 72°36' W 104°00'6 6.3 180 / 10974.7 -4.4 -1.7
2020-Mar-16 00:00S 72°42' W 104°06'0 0.0 180 / 11974.8 -4.3 -1.8
2020-Mar-15 23:00S 72°42' W 104°06'7 7.0 190 / 11974.6 -3.4 -1.8
2020-Mar-15 22:00S 72°48' W 103°54'6 6.3 190 / 11974.4 -2.0 -1.6
2020-Mar-15 21:00S 72°54' W 103°48'1212.0 160 / 11974.5 -2.3 -1.6
2020-Mar-15 20:00S 73°06' W 103°48'1212.1 160 / 11974.5 -2.4 -1.6
2020-Mar-15 19:00S 73°18' W 103°54'1010.5 160 / 11974.4 -3.0 -1.7
2020-Mar-15 18:00S 73°24' W 104°24'7 6.9 150 / 12974.5 -3.8 -1.8
2020-Mar-15 17:00S 73°24' W 104°48'6 6.0 170 / 11974.2 -4.8 -1.8
2020-Mar-15 16:00S 73°18' W 104°48'7 6.9 160 / 11974.0 -4.1 -1.7
2020-Mar-15 15:00S 73°12' W 105°00'5 5.2 170 / 13973.5 -4.7 -1.8
2020-Mar-15 14:00S 73°12' W 105°18'0 0.0 150 / 13973.0 -5.2 -1.8
2020-Mar-15 13:00S 73°12' W 105°18'0 0.0 130 / 14972.5 -3.1 -1.7
2020-Mar-15 12:00S 73°12' W 105°18'0 0.0 130 / 15972.0 -2.3 -1.7
2020-Mar-15 11:00S 73°12' W 105°18'0 0.0 120 / 20971.2 -2.1 -1.0
2020-Mar-15 10:00S 73°12' W 105°18'0 0.0 140 / 18970.3 -2.4 -1.3
2020-Mar-15 09:00S 73°12' W 105°18'0 0.0 140 / 15969.6 -2.2 -1.6
2020-Mar-15 08:00S 73°12' W 105°18'0 0.0 140 / 20968.6 -2.7 -1.7
2020-Mar-15 07:00S 73°12' W 105°18'0 0.0 140 / 18968.2 -3.2 -1.7
2020-Mar-15 06:00S 73°12' W 105°18'2 1.7 160 / 14967.7 -5.8 -1.7
2020-Mar-15 05:00S 73°12' W 105°24'0 0.0 150 / 14967.1 -3.7 -1.7
2020-Mar-15 04:00S 73°12' W 105°24'0 0.0 130 / 16966.8 -2.3 -1.7
2020-Mar-15 03:00S 73°12' W 105°24'2 1.7 130 / 17967.0 -2.2 -1.8
2020-Mar-15 02:00S 73°12' W 105°18'0 0.0 150 / 20967.2 -2.1 -1.7
2020-Mar-15 01:00S 73°12' W 105°18'6 6.2 160 / 19967.0 -1.8 -1.7
2020-Mar-15 00:00S 73°18' W 105°12'3 3.4 160 / 20966.9 -1.5 -1.7
2020-Mar-14 23:00S 73°18' W 105°00'7 6.9 160 / 19966.4 -1.3 -1.8
2020-Mar-14 22:00S 73°24' W 104°48'9 8.6 150 / 20966.4 -0.8 -1.7
2020-Mar-14 21:00S 73°24' W 104°18'1010.5 150 / 22966.1 -0.9 -1.7
2020-Mar-14 20:00S 73°18' W 103°48'1212.1 130 / 18965.8 -0.0 -1.6
2020-Mar-14 19:00S 73°06' W 103°42'6 6.0 120 / 18965.1 0.2 -1.6
2020-Mar-14 18:00S 73°00' W 103°42'1212.0 080 / 27963.3 -0.1 -1.6
2020-Mar-14 17:00S 72°48' W 103°42'6 6.3 080 / 28962.3 -0.0 -1.7
2020-Mar-14 16:00S 72°42' W 103°48'7 7.0 080 / 36961.8 -0.3 -1.7
2020-Mar-14 15:00S 72°36' W 104°00'4 3.6 090 / 30962.0 -0.5 -1.7
2020-Mar-14 14:00S 72°36' W 104°12'2 1.8 100 / 22962.9 -0.3 -1.7
2020-Mar-14 13:00S 72°36' W 104°18'6 6.0 110 / 17963.6 -0.0 -1.7
2020-Mar-14 12:00S 72°42' W 104°18'0 0.0 120 / 17964.1 0.5 -1.4
2020-Mar-14 11:00S 72°42' W 104°18'0 0.0 130 / 15964.5 -0.4 -1.5
2020-Mar-14 10:00S 72°42' W 104°18'0 0.0 150 / 13964.9 -1.1 -1.5
2020-Mar-14 09:00S 72°42' W 104°18'0 0.0 150 / 17965.6 -1.1 -1.6
2020-Mar-14 08:00S 72°42' W 104°18'0 0.0 160 / 18966.3 -1.0 -1.7
2020-Mar-14 07:00S 72°42' W 104°18'0 0.0 160 / 14967.2 -1.1 -1.8
2020-Mar-14 06:00S 72°42' W 104°18'2 1.8 160 / 12968.0 -1.4 -1.7
2020-Mar-14 05:00S 72°42' W 104°12'2 1.8 140 / 11968.4 -0.9 -1.7
2020-Mar-14 04:00S 72°42' W 104°18'0 0.0 090 / 16968.9 -0.6 -1.7
2020-Mar-14 03:00S 72°42' W 104°18'4 3.6 100 / 12969.7 -1.2 -1.7
2020-Mar-14 02:00S 72°42' W 104°30'7 7.0 110 / 10970.4 -1.8 -1.7
2020-Mar-14 01:00S 72°48' W 104°42'0 0.0 140 / 10970.8 -1.8 -1.7
2020-Mar-14 00:00S 72°48' W 104°42'6 6.3 140 / 10971.0 -2.2 -1.7
2020-Mar-13 23:00S 72°42' W 104°36'4 3.6 120 / 10971.2 -1.7 -1.7
2020-Mar-13 22:00S 72°42' W 104°24'7 7.0 090 / 15971.1 -1.2 -1.7
2020-Mar-13 21:00S 72°36' W 104°12'2 1.8 080 / 19970.9 -1.5 -1.8
2020-Mar-13 20:00S 72°36' W 104°18'0 0.0 080 / 18971.0 -2.4 -1.7
2020-Mar-13 19:00S 72°36' W 104°18'2 1.8 080 / 17971.0 -2.7 -1.7
2020-Mar-13 18:00S 72°36' W 104°24'0 0.0 080 / 16970.8 -2.6 -1.7
2020-Mar-13 17:00S 72°36' W 104°24'0 0.0 080 / 19970.7 -2.7 -1.7
2020-Mar-13 16:00S 72°36' W 104°24'0 0.0 070 / 15970.7 -3.2 -1.7
2020-Mar-13 15:00S 72°36' W 104°24'2 1.8 080 / 16970.5 -3.4 -1.8
2020-Mar-13 14:00S 72°36' W 104°18'2 1.8 080 / 19970.5 -3.3 -1.7
2020-Mar-13 13:00S 72°36' W 104°12'4 3.6 080 / 21970.3 -3.2 -1.7
2020-Mar-13 12:00S 72°36' W 104°00'6 6.3 080 / 20969.9 -3.1 -1.8
2020-Mar-13 11:00S 72°42' W 103°54'4 3.6 080 / 19969.4 -2.2 -1.7
2020-Mar-13 10:00S 72°42' W 103°42'6 6.3 070 / 20969.0 -1.7 -1.7
2020-Mar-13 09:00S 72°48' W 103°36'1212.0 070 / 21968.7 -1.9 -1.6
2020-Mar-13 08:00S 73°00' W 103°36'1212.5 070 / 25968.6 -2.5 -1.7
2020-Mar-13 07:00S 73°12' W 103°24'6 6.0 060 / 20968.7 -1.9 -1.6
2020-Mar-13 06:00S 73°18' W 103°24'2 1.7 060 / 18968.7 -1.9 -1.6
2020-Mar-13 05:00S 73°18' W 103°30'2 1.7 060 / 21968.3 -2.0 -1.7
2020-Mar-13 04:00S 73°18' W 103°24'1212.1 060 / 16968.0 -2.3 -1.5
2020-Mar-13 03:00S 73°30' W 103°18'6 6.0 040 / 15967.9 -2.1 -1.6
2020-Mar-13 02:00S 73°36' W 103°18'6 6.0 030 / 13967.6 -1.9 -1.6
2020-Mar-13 01:00S 73°42' W 103°18'0 0.0 966.6 -2.1 -1.7
2020-Mar-13 00:00S 73°42' W 103°18'7 6.9 360 / 15965.5 -2.1 -1.7
2020-Mar-12 23:00S 73°48' W 103°06'1010.3 020 / 19964.1 -1.1 -1.4
2020-Mar-12 22:00S 73°54' W 102°36'9 8.9 020 / 20963.1 -1.1 -1.3
2020-Mar-12 21:00S 74°00' W 102°12'0 0.0 010 / 9963.3 -0.9 -1.3
2020-Mar-12 20:00S 74°00' W 102°12'0 0.0 010 / 20962.2 -1.3 -1.3
2020-Mar-12 19:00S 74°00' W 102°12'0 0.0 030 / 15961.4 -1.2 -1.3
2020-Mar-12 18:00S 74°00' W 102°12'0 0.0 020 / 6960.8 -2.2 -1.3
2020-Mar-12 17:00S 74°00' W 102°12'0 0.0 350 / 3961.1 -2.7 -1.4
2020-Mar-12 16:00S 74°00' W 102°12'0 0.0 180 / 4962.6 -3.5 -1.4
2020-Mar-12 15:00S 74°00' W 102°12'0 0.0 130 / 10964.8 -3.4 -1.4
2020-Mar-12 14:00S 74°00' W 102°12'0 0.0 130 / 16966.9 -2.9 -1.4
2020-Mar-12 13:00S 74°00' W 102°12'0 0.0 150 / 14968.9 -2.4 -1.4
2020-Mar-12 12:00S 74°00' W 102°12'   120 / 13971.1 -1.4 -1.5

Dump ship's entire track history